Time;durP1;ratioP1;P1;durP2;ratioP2;P2;SDS_P1;SDS_P2;PMS_P1;PMS_P2;Temp;Humidity;BMP_temperature;BMP_pressure;BME280_temperature;BME280_humidity;BME280_pressure;Samples;Min_cycle;Max_cycle;Signal;HPM_P1;HPM_P2
2023/01/09 00:01:16;;;;;;;0.40;0.40;;;;;;;8.94;100.00;94831.84;5038751;28;20218;-80
2023/01/09 00:03:44;;;;;;;0.40;0.40;;;;;;;8.93;100.00;94825.66;5046611;28;20215;-82
2023/01/09 00:06:12;;;;;;;0.40;0.40;;;;;;;8.84;100.00;94816.44;5039120;28;20201;-80
2023/01/09 00:08:39;;;;;;;0.50;0.50;;;;;;;8.78;100.00;94801.31;5044256;28;20202;-81
2023/01/09 00:11:06;;;;;;;0.43;0.43;;;;;;;8.78;100.00;94787.03;5038691;28;20223;-81
2023/01/09 00:13:34;;;;;;;0.40;0.40;;;;;;;9.08;94.63;94780.03;5044527;28;20206;-80
2023/01/09 00:16:01;;;;;;;0.40;0.40;;;;;;;9.52;91.56;94790.53;5036784;28;20198;-80
2023/01/09 00:18:28;;;;;;;0.50;0.50;;;;;;;9.55;97.34;94784.59;5044052;28;20238;-81
2023/01/09 00:20:59;;;;;;;0.50;0.50;;;;;;;9.51;93.02;94788.09;5045935;28;20203;-81
2023/01/09 00:23:26;;;;;;;0.40;0.40;;;;;;;9.69;86.39;94779.56;5043885;28;20205;-81
2023/01/09 00:26:02;;;;;;;0.40;0.40;;;;;;;9.93;83.35;94764.56;5037153;28;20202;-80
2023/01/09 00:28:29;;;;;;;0.40;0.40;;;;;;;10.04;83.19;94746.50;5047409;28;20205;-81
2023/01/09 00:30:56;;;;;;;0.40;0.40;;;;;;;10.13;80.31;94744.91;5044732;28;20195;-80
2023/01/09 00:33:26;;;;;;;0.40;0.40;;;;;;;10.14;81.87;94749.25;5049413;28;20206;-81
2023/01/09 00:35:53;;;;;;;0.40;0.40;;;;;;;10.14;80.54;94738.44;5045844;28;20210;-80
2023/01/09 00:38:21;;;;;;;0.40;0.40;;;;;;;10.23;80.33;94742.28;5044643;28;20210;-80
2023/01/09 00:40:49;;;;;;;0.40;0.40;;;;;;;10.32;78.75;94743.38;5043432;28;20206;-79
2023/01/09 00:43:17;;;;;;;0.40;0.40;;;;;;;10.33;79.50;94741.50;5034241;28;20245;-80
2023/01/09 00:45:44;;;;;;;0.40;0.40;;;;;;;10.31;79.32;94755.25;5046651;28;20190;-80
2023/01/09 00:48:14;;;;;;;0.40;0.40;;;;;;;10.32;79.30;94761.44;5047960;28;20225;-80
2023/01/09 00:50:43;;;;;;;0.40;0.40;;;;;;;10.28;80.20;94744.19;5044506;28;20206;-81
2023/01/09 00:53:15;;;;;;;0.40;0.40;;;;;;;10.21;82.00;94744.44;5042031;28;20202;-80
2023/01/09 00:55:44;;;;;;;0.40;0.40;;;;;;;10.18;83.46;94747.69;5046894;28;20217;-80
2023/01/09 00:58:11;;;;;;;0.40;0.40;;;;;;;10.01;85.41;94734.41;5044757;28;20214;-80
2023/01/09 01:00:38;;;;;;;0.40;0.40;;;;;;;9.96;86.47;94747.03;5034810;28;20207;-80
2023/01/09 01:03:09;;;;;;;0.43;0.43;;;;;;;9.88;87.72;94729.50;5047131;28;20228;-80
2023/01/09 01:08:19;;;;;;;0.40;0.40;;;;;;;9.74;88.80;94734.56;4998804;28;20213;-80
2023/01/09 01:10:48;;;;;;;0.40;0.40;;;;;;;9.72;89.93;94758.28;5045623;28;20222;-80
2023/01/09 01:13:15;;;;;;;0.63;0.43;;;;;;;9.79;89.82;94758.03;5044174;28;20209;-80
2023/01/09 01:15:44;;;;;;;0.47;0.47;;;;;;;9.77;88.75;94744.03;5055323;28;20201;-80
2023/01/09 01:18:12;;;;;;;0.67;0.40;;;;;;;9.78;88.21;94730.25;5039161;28;20209;-80
2023/01/09 01:20:40;;;;;;;0.40;0.40;;;;;;;9.77;88.54;94731.38;5040921;28;20202;-80
2023/01/09 01:23:07;;;;;;;0.40;0.40;;;;;;;9.86;87.57;94732.47;5045410;28;20233;-81
2023/01/09 01:25:36;;;;;;;0.50;0.50;;;;;;;9.82;87.90;94747.53;5043284;28;20226;-80
2023/01/09 01:28:05;;;;;;;0.40;0.40;;;;;;;9.69;90.38;94749.94;5048325;28;20301;-80
2023/01/09 01:30:33;;;;;;;0.40;0.40;;;;;;;9.65;91.18;94746.94;5050257;28;20298;-80
2023/01/09 01:33:00;;;;;;;0.40;0.40;;;;;;;9.49;93.66;94726.38;5046173;28;20202;-80
2023/01/09 01:35:27;;;;;;;0.40;0.40;;;;;;;9.53;93.70;94715.91;5048031;28;20237;-80
2023/01/09 01:37:54;;;;;;;0.40;0.40;;;;;;;9.50;94.33;94744.19;5046113;28;20199;-80
2023/01/09 01:40:21;;;;;;;0.40;0.40;;;;;;;9.34;97.58;94746.00;5046405;28;20199;-80
2023/01/09 01:42:49;;;;;;;0.40;0.40;;;;;;;9.23;99.37;94720.06;5051852;28;20249;-80
2023/01/09 01:45:20;;;;;;;0.40;0.40;;;;;;;9.36;96.33;94735.75;5049914;28;20296;-80
2023/01/09 01:47:53;;;;;;;0.40;0.40;;;;;;;9.32;95.48;94736.53;5049575;28;20194;-80
2023/01/09 01:50:29;;;;;;;0.40;0.40;;;;;;;9.38;96.37;94743.56;5050017;28;20291;-80
2023/01/09 01:53:03;;;;;;;0.40;0.40;;;;;;;9.28;96.56;94735.44;5049106;28;20198;-80
2023/01/09 01:55:31;;;;;;;0.40;0.40;;;;;;;9.28;97.62;94727.34;5045714;28;20211;-80
2023/01/09 01:58:02;;;;;;;0.40;0.40;;;;;;;9.24;97.52;94739.72;5045947;28;20191;-80
2023/01/09 02:00:36;;;;;;;0.40;0.40;;;;;;;9.28;97.08;94743.50;5036978;28;20225;-80
2023/01/09 02:03:03;;;;;;;0.73;0.40;;;;;;;9.34;95.12;94734.41;5048327;28;20230;-80
2023/01/09 02:05:31;;;;;;;0.30;0.30;;;;;;;9.19;96.57;94740.50;5048008;28;20206;-80
2023/01/09 02:07:58;;;;;;;0.40;0.40;;;;;;;9.24;96.49;94756.69;5041494;28;20264;-80
2023/01/09 02:10:26;;;;;;;0.40;0.40;;;;;;;9.17;97.53;94749.91;5048240;28;20225;-80
2023/01/09 02:12:53;;;;;;;0.40;0.40;;;;;;;9.06;97.31;94749.84;5045009;28;20198;-79
2023/01/09 02:15:20;;;;;;;0.40;0.40;;;;;;;9.20;96.14;94757.47;5045228;28;20195;-80
2023/01/09 02:18:12;;;;;;;0.40;0.40;;;;;;;9.11;97.89;94759.81;5046838;28;20229;-80
2023/01/09 02:20:56;;;;;;;0.40;0.40;;;;;;;9.06;97.79;94760.63;5049995;28;20268;-80
2023/01/09 02:24:04;;;;;;;0.40;0.40;;;;;;;9.00;99.16;94753.59;5051292;28;20225;-79
2023/01/09 02:26:51;;;;;;;0.30;0.30;;;;;;;9.03;99.46;94744.16;5038010;28;20225;-80
2023/01/09 02:29:55;;;;;;;0.40;0.40;;;;;;;9.01;98.51;94747.13;5042927;28;20210;-80
2023/01/09 02:32:36;;;;;;;0.40;0.40;;;;;;;9.01;99.11;94743.63;5049363;28;20233;-80
2023/01/09 02:35:16;;;;;;;0.40;0.40;;;;;;;8.99;98.18;94751.16;5041579;28;20230;-80
2023/01/09 02:37:49;;;;;;;0.40;0.40;;;;;;;8.98;98.46;94736.88;5050354;28;20236;-79
2023/01/09 02:40:23;;;;;;;0.50;0.50;;;;;;;8.94;98.71;94727.69;5062602;28;20288;-80
2023/01/09 02:42:53;;;;;;;0.40;0.40;;;;;;;8.84;100.00;94724.94;5044887;28;20218;-79
2023/01/09 02:45:19;;;;;;;0.40;0.40;;;;;;;8.79;100.00;94724.91;5047774;28;20213;-80
2023/01/09 02:47:48;;;;;;;0.40;0.40;;;;;;;8.74;100.00;94730.25;5047103;28;20270;-79
2023/01/09 02:50:19;;;;;;;0.40;0.40;;;;;;;8.75;100.00;94721.13;5046272;28;20210;-80
2023/01/09 02:53:25;;;;;;;1.17;0.40;;;;;;;8.62;100.00;94737.69;5033362;28;20207;-80
2023/01/09 02:56:05;;;;;;;0.40;0.40;;;;;;;8.51;100.00;94761.00;5025279;28;20218;-80
2023/01/09 02:58:49;;;;;;;0.40;0.40;;;;;;;8.48;100.00;94803.75;5048829;28;20198;-80
2023/01/09 03:01:25;;;;;;;0.30;0.30;;;;;;;8.49;100.00;94864.53;5042562;28;20310;-80
2023/01/09 03:04:02;;;;;;;0.70;0.70;;;;;;;8.54;100.00;94910.31;5038181;28;20213;-80
2023/01/09 03:06:38;;;;;;;0.60;0.60;;;;;;;8.40;100.00;94919.84;5046223;28;20210;-80
2023/01/09 03:09:12;;;;;;;1.60;0.70;;;;;;;8.15;100.00;94957.97;5049299;28;20233;-80
2023/01/09 03:11:44;;;;;;;0.60;0.60;;;;;;;7.85;100.00;94969.09;5053524;28;20221;-81
2023/01/09 03:14:15;;;;;;;0.97;0.60;;;;;;;7.67;100.00;94969.34;5061142;28;20199;-80
2023/01/09 03:16:46;;;;;;;1.60;0.50;;;;;;;7.57;100.00;94997.66;5045516;28;20275;-80
2023/01/09 03:19:19;;;;;;;1.10;0.50;;;;;;;7.44;100.00;94991.81;5047291;28;20285;-80
2023/01/09 03:21:47;;;;;;;0.70;0.70;;;;;;;7.15;100.00;94994.56;5038611;28;20206;-81
2023/01/09 03:24:15;;;;;;;0.50;0.50;;;;;;;7.00;100.00;95004.19;5040496;28;20237;-81
2023/01/09 03:26:42;;;;;;;0.40;0.40;;;;;;;7.01;100.00;95016.56;5043978;28;20210;-80
2023/01/09 03:29:10;;;;;;;0.40;0.40;;;;;;;6.80;100.00;95018.84;5047720;28;20210;-81
2023/01/09 03:31:37;;;;;;;0.63;0.53;;;;;;;6.77;100.00;95032.78;5042576;28;20214;-80
2023/01/09 03:34:04;;;;;;;0.50;0.50;;;;;;;6.67;100.00;95034.44;5042738;28;20201;-81
2023/01/09 03:36:35;;;;;;;0.50;0.50;;;;;;;6.67;100.00;95040.59;5039423;28;20197;-80
2023/01/09 03:39:02;;;;;;;0.50;0.50;;;;;;;6.64;100.00;95037.56;5037183;28;20297;-80
2023/01/09 03:41:29;;;;;;;0.50;0.50;;;;;;;6.57;100.00;95048.44;5033855;28;20199;-80
2023/01/09 03:43:56;;;;;;;0.50;0.50;;;;;;;6.63;100.00;95057.44;5034328;28;20222;-80
2023/01/09 03:46:23;;;;;;;0.47;0.47;;;;;;;6.47;100.00;95045.53;5042748;28;20206;-81
2023/01/09 03:48:50;;;;;;;0.40;0.40;;;;;;;6.48;100.00;95057.91;5038008;28;20234;-80
2023/01/09 03:51:17;;;;;;;0.97;0.63;;;;;;;6.42;100.00;95064.22;5038667;28;20210;-80
2023/01/09 03:53:45;;;;;;;0.50;0.50;;;;;;;6.34;100.00;95059.22;5042988;28;20206;-81
2023/01/09 03:56:12;;;;;;;0.50;0.50;;;;;;;6.40;100.00;95079.72;5045033;28;20194;-81
2023/01/09 03:58:39;;;;;;;0.63;0.60;;;;;;;6.45;100.00;95087.88;5047062;28;20259;-80
2023/01/09 04:01:08;;;;;;;1.40;0.50;;;;;;;6.47;100.00;95105.34;5043571;28;20195;-80
2023/01/09 04:03:35;;;;;;;0.40;0.40;;;;;;;6.37;100.00;95102.47;5042290;28;20233;-80
2023/01/09 04:06:02;;;;;;;0.43;0.43;;;;;;;6.44;100.00;95108.53;5034180;28;20209;-80
2023/01/09 04:08:30;;;;;;;0.30;0.30;;;;;;;6.47;100.00;95123.28;5037140;28;20266;-82
2023/01/09 04:10:59;;;;;;;0.50;0.50;;;;;;;6.40;100.00;95119.94;5040878;28;20228;-80
2023/01/09 04:13:26;;;;;;;0.50;0.50;;;;;;;6.44;100.00;95147.91;5037051;28;20210;-79
2023/01/09 04:15:53;;;;;;;0.33;0.33;;;;;;;6.31;100.00;95145.44;5044345;28;20206;-80
2023/01/09 04:18:20;;;;;;;0.40;0.40;;;;;;;6.29;100.00;95150.25;5038400;28;20284;-80
2023/01/09 04:20:48;;;;;;;0.93;0.50;;;;;;;6.26;100.00;95172.16;5044838;28;20202;-79
2023/01/09 04:23:15;;;;;;;0.50;0.50;;;;;;;6.27;100.00;95171.09;5043683;28;20238;-80
2023/01/09 04:25:42;;;;;;;0.60;0.50;;;;;;;6.31;100.00;95182.97;5042345;28;20210;-80
2023/01/09 04:28:11;;;;;;;0.70;0.70;;;;;;;6.26;100.00;95175.66;5044166;28;20205;-80
2023/01/09 04:30:38;;;;;;;0.70;0.70;;;;;;;6.23;100.00;95159.19;5047366;28;20202;-80
2023/01/09 04:33:05;;;;;;;0.70;0.70;;;;;;;6.26;100.00;95172.16;5038885;28;20210;-80
2023/01/09 04:35:32;;;;;;;1.43;1.33;;;;;;;6.17;100.00;95155.59;5042884;28;20199;-79
2023/01/09 04:37:59;;;;;;;3.53;1.30;;;;;;;6.15;100.00;95175.63;5033032;28;20206;-79
2023/01/09 04:40:26;;;;;;;0.83;0.83;;;;;;;6.01;100.00;95151.75;5044297;28;20222;-80
2023/01/09 04:42:53;;;;;;;0.73;0.70;;;;;;;6.04;100.00;95147.75;5046554;28;20218;-79
2023/01/09 04:45:22;;;;;;;0.60;0.60;;;;;;;6.05;100.00;95157.44;5044392;28;20205;-78
2023/01/09 04:47:49;;;;;;;1.00;0.70;;;;;;;5.99;100.00;95169.91;5046176;28;20255;-79
2023/01/09 04:50:16;;;;;;;0.50;0.50;;;;;;;5.87;100.00;95150.25;5039226;28;20198;-79
2023/01/09 04:52:43;;;;;;;0.73;0.53;;;;;;;5.91;100.00;95156.84;5031329;28;20233;-79
2023/01/09 04:55:10;;;;;;;1.20;0.60;;;;;;;5.98;100.00;95168.25;5043236;28;20197;-78
2023/01/09 04:57:37;;;;;;;0.60;0.60;;;;;;;5.98;100.00;95162.09;5043743;28;20207;-78
2023/01/09 05:00:08;;;;;;;0.97;0.60;;;;;;;5.96;100.00;95178.38;5040571;28;20202;-78
2023/01/09 05:02:38;;;;;;;2.33;0.53;;;;;;;5.83;100.00;95186.59;5043968;28;20210;-78
2023/01/09 05:05:06;;;;;;;0.50;0.50;;;;;;;5.70;100.00;95192.97;5043572;28;20230;-79
2023/01/09 05:07:33;;;;;;;2.20;0.70;;;;;;;5.75;100.00;95186.94;5036537;28;20197;-78
2023/01/09 05:10:01;;;;;;;0.50;0.50;;;;;;;5.54;100.00;95161.47;5047771;28;20209;-79
2023/01/09 05:12:28;;;;;;;1.07;0.47;;;;;;;5.49;100.00;95171.25;5042609;28;20213;-79
2023/01/09 05:14:56;;;;;;;1.07;0.60;;;;;;;5.48;100.00;95183.81;5043786;28;20287;-79
2023/01/09 05:17:23;;;;;;;1.27;0.60;;;;;;;5.42;100.00;95184.72;5019501;28;20487;-78
2023/01/09 05:19:52;;;;;;;0.50;0.50;;;;;;;5.52;100.00;95189.53;5039542;28;20238;-79
2023/01/09 05:22:19;;;;;;;0.77;0.70;;;;;;;5.54;100.00;95196.28;5036002;28;20191;-79
2023/01/09 05:24:46;;;;;;;0.53;0.50;;;;;;;5.51;100.00;95199.44;5050748;28;20252;-80
2023/01/09 05:27:13;;;;;;;0.70;0.70;;;;;;;5.52;100.00;95194.91;5047489;28;20201;-81
2023/01/09 05:29:40;;;;;;;3.50;2.33;;;;;;;5.56;100.00;95196.88;5031910;28;20264;-80
2023/01/09 05:32:07;;;;;;;3.10;2.33;;;;;;;5.50;100.00;95195.13;5038008;28;20213;-80
2023/01/09 05:34:34;;;;;;;4.90;2.30;;;;;;;5.54;100.00;95201.63;5055337;28;20222;-80
2023/01/09 05:37:03;;;;;;;2.53;2.33;;;;;;;5.70;100.00;95217.06;5054299;28;20202;-79
2023/01/09 05:39:30;;;;;;;2.03;1.60;;;;;;;5.56;100.00;95220.16;5051297;28;20210;-79
2023/01/09 05:41:57;;;;;;;1.70;1.60;;;;;;;5.69;100.00;95239.56;5048540;28;20225;-79
2023/01/09 05:44:24;;;;;;;1.70;1.60;;;;;;;5.72;100.00;95240.94;5048190;28;20230;-80
2023/01/09 05:46:51;;;;;;;3.73;1.80;;;;;;;5.72;100.00;95239.09;5048209;28;20206;-80
2023/01/09 05:49:18;;;;;;;5.27;4.80;;;;;;;5.73;100.00;95239.91;5049610;28;20202;-80
2023/01/09 05:51:45;;;;;;;5.23;4.73;;;;;;;5.81;100.00;95242.25;5049368;28;20190;-79
2023/01/09 05:54:14;;;;;;;3.10;2.80;;;;;;;5.79;100.00;95244.34;5049511;28;20206;-79
2023/01/09 05:56:41;;;;;;;0.70;0.70;;;;;;;5.72;100.00;95232.91;5042688;28;20199;-79
2023/01/09 05:59:08;;;;;;;0.50;0.50;;;;;;;5.70;100.00;95235.81;5044906;28;20207;-80
2023/01/09 06:01:35;;;;;;;1.43;0.67;;;;;;;5.60;100.00;95240.09;5047328;28;20214;-80
2023/01/09 06:04:02;;;;;;;1.53;0.50;;;;;;;5.66;100.00;95241.84;5040209;28;20218;-80
2023/01/09 06:06:29;;;;;;;0.50;0.50;;;;;;;5.59;100.00;95246.50;5047422;28;20205;-80
2023/01/09 06:08:56;;;;;;;1.00;0.87;;;;;;;5.64;100.00;95265.34;5044193;28;20207;-79
2023/01/09 06:11:25;;;;;;;1.80;1.40;;;;;;;5.74;100.00;95262.16;5044892;28;20222;-79
2023/01/09 06:13:52;;;;;;;3.57;3.27;;;;;;;5.74;100.00;95254.13;5047265;28;20202;-80
2023/01/09 06:16:19;;;;;;;1.50;1.17;;;;;;;5.69;100.00;95252.13;5046041;28;20212;-79
2023/01/09 06:18:46;;;;;;;1.20;0.90;;;;;;;5.63;100.00;95237.75;5051404;28;20240;-80
2023/01/09 06:21:13;;;;;;;1.37;0.60;;;;;;;5.59;100.00;95211.69;5049308;28;20212;-80
2023/01/09 06:23:42;;;;;;;2.97;1.80;;;;;;;5.74;100.00;95225.47;5041281;28;20241;-82
2023/01/09 06:26:09;;;;;;;2.90;1.67;;;;;;;5.63;100.00;95235.09;5048513;28;20205;-80
2023/01/09 06:28:37;;;;;;;1.10;1.00;;;;;;;5.63;100.00;95244.97;5045752;28;20230;-79
2023/01/09 06:31:06;;;;;;;1.17;1.00;;;;;;;5.71;100.00;95242.81;5042507;28;20199;-79
2023/01/09 06:33:33;;;;;;;3.30;2.33;;;;;;;5.69;100.00;95222.66;5050635;28;20210;-80
2023/01/09 06:36:00;;;;;;;0.63;0.60;;;;;;;5.76;100.00;95220.72;5047883;28;20202;-79
2023/01/09 06:38:27;;;;;;;0.87;0.60;;;;;;;5.76;100.00;95226.06;5049938;28;20255;-79
2023/01/09 06:40:54;;;;;;;0.60;0.60;;;;;;;5.77;100.00;95219.66;5050197;28;20198;-79
2023/01/09 06:43:21;;;;;;;1.60;1.00;;;;;;;5.88;100.00;95232.28;5040594;28;20282;-79
2023/01/09 06:45:52;;;;;;;0.60;0.60;;;;;;;5.80;100.00;95223.72;5046649;28;20205;-79
2023/01/09 06:48:19;;;;;;;0.50;0.50;;;;;;;5.74;100.00;95205.91;5049454;28;20210;-79
2023/01/09 06:50:48;;;;;;;0.40;0.40;;;;;;;5.78;100.00;95225.84;5047667;28;20213;-79
2023/01/09 06:53:15;;;;;;;0.93;0.60;;;;;;;5.85;100.00;95232.75;5044635;28;20296;-79
2023/01/09 06:55:42;;;;;;;0.50;0.50;;;;;;;5.87;100.00;95229.84;5042403;28;20210;-79
2023/01/09 06:58:09;;;;;;;0.43;0.43;;;;;;;5.89;100.00;95243.84;5044513;28;20230;-79
2023/01/09 07:00:36;;;;;;;1.60;0.67;;;;;;;5.92;100.00;95230.81;5046277;28;20206;-79
2023/01/09 07:03:06;;;;;;;0.50;0.50;;;;;;;5.98;100.00;95239.78;5053558;28;20206;-80
2023/01/09 07:05:39;;;;;;;0.77;0.77;;;;;;;6.11;100.00;95250.31;5043945;28;20206;-80
2023/01/09 07:08:09;;;;;;;0.60;0.60;;;;;;;6.15;100.00;95246.13;5045911;28;20286;-79
2023/01/09 07:10:36;;;;;;;1.27;1.17;;;;;;;6.26;100.00;95255.25;5047158;28;20308;-79
2023/01/09 07:13:03;;;;;;;0.80;0.80;;;;;;;6.22;100.00;95254.06;5035892;28;20201;-80
2023/01/09 07:15:30;;;;;;;0.73;0.73;;;;;;;6.20;100.00;95258.84;5043660;28;20202;-79
2023/01/09 07:17:58;;;;;;;0.40;0.40;;;;;;;6.10;100.00;95246.00;5032023;28;20261;-80
2023/01/09 07:20:26;;;;;;;0.87;0.80;;;;;;;5.95;100.00;95264.38;5044266;28;20202;-80
2023/01/09 07:22:53;;;;;;;0.83;0.70;;;;;;;5.85;100.00;95261.38;5042450;28;20207;-80
2023/01/09 07:25:21;;;;;;;2.13;1.37;;;;;;;5.89;100.00;95274.13;5046345;28;20245;-80
2023/01/09 07:27:48;;;;;;;1.63;0.80;;;;;;;5.95;100.00;95285.81;5042879;28;20293;-80
2023/01/09 07:30:16;;;;;;;0.80;0.80;;;;;;;5.95;100.00;95289.31;5043214;28;20213;-80
2023/01/09 07:32:43;;;;;;;1.33;1.00;;;;;;;5.91;100.00;95284.63;5040090;28;20203;-82
2023/01/09 07:35:11;;;;;;;0.43;0.43;;;;;;;5.91;100.00;95290.78;5035461;28;20213;-79
2023/01/09 07:37:39;;;;;;;1.20;1.10;;;;;;;5.90;100.00;95299.88;5037364;28;20245;-80
2023/01/09 07:40:10;;;;;;;3.23;1.70;;;;;;;5.84;100.00;95298.06;5045787;28;20202;-80
2023/01/09 07:42:37;;;;;;;1.30;1.20;;;;;;;5.74;100.00;95299.66;5046579;28;20215;-79
2023/01/09 07:45:08;;;;;;;1.83;0.80;;;;;;;5.63;100.00;95299.34;5043534;28;20226;-79
2023/01/09 07:47:35;;;;;;;1.20;1.10;;;;;;;5.57;100.00;95289.56;5039036;28;20222;-80
2023/01/09 07:50:02;;;;;;;1.50;1.40;;;;;;;5.49;100.00;95297.06;5034841;28;20209;-80
2023/01/09 07:52:29;;;;;;;1.60;1.50;;;;;;;5.39;100.00;95296.78;5044437;28;20210;-79
2023/01/09 07:54:58;;;;;;;1.30;1.20;;;;;;;5.33;100.00;95288.59;5033971;28;20214;-80
2023/01/09 07:57:25;;;;;;;1.30;1.20;;;;;;;5.29;100.00;95281.22;5042401;28;20210;-79
2023/01/09 07:59:52;;;;;;;1.13;1.03;;;;;;;5.40;100.00;95283.16;5040862;28;20213;-80
2023/01/09 08:02:19;;;;;;;0.87;0.87;;;;;;;5.41;100.00;95297.38;5035979;28;20210;-80
2023/01/09 08:04:46;;;;;;;1.20;1.10;;;;;;;5.48;100.00;95298.94;5037498;28;20228;-80
2023/01/09 08:07:13;;;;;;;1.10;1.00;;;;;;;5.52;100.00;95289.41;5038207;28;20210;-80
2023/01/09 08:09:40;;;;;;;1.07;1.00;;;;;;;5.62;100.00;95287.00;5041140;28;20203;-80
2023/01/09 08:12:08;;;;;;;0.93;0.87;;;;;;;5.63;100.00;95287.81;5041363;28;20210;-80
2023/01/09 08:14:35;;;;;;;1.10;1.00;;;;;;;5.59;100.00;95295.50;5041941;28;20237;-81
2023/01/09 08:17:02;;;;;;;1.07;0.90;;;;;;;5.67;100.00;95300.56;5039129;28;20222;-80
2023/01/09 08:19:29;;;;;;;1.20;1.10;;;;;;;5.65;100.00;95297.28;5040699;28;20210;-79
2023/01/09 08:21:56;;;;;;;1.00;0.90;;;;;;;5.70;100.00;95289.38;5037668;28;20238;-81
2023/01/09 08:24:23;;;;;;;0.90;0.90;;;;;;;5.69;100.00;95286.94;5035530;28;20234;-80
2023/01/09 08:26:50;;;;;;;1.23;0.83;;;;;;;5.58;100.00;95264.41;5035517;28;20206;-79
2023/01/09 08:29:18;;;;;;;1.60;1.17;;;;;;;5.58;100.00;95285.00;5038145;28;20222;-79
2023/01/09 08:31:45;;;;;;;1.30;1.13;;;;;;;5.66;100.00;95287.38;5034676;28;20199;-79
2023/01/09 08:34:13;;;;;;;1.50;1.33;;;;;;;5.63;100.00;95294.00;5051551;28;20202;-79
2023/01/09 08:36:40;;;;;;;1.20;1.10;;;;;;;5.53;100.00;95287.56;5037861;28;20293;-79
2023/01/09 08:39:07;;;;;;;0.97;0.90;;;;;;;5.62;100.00;95300.38;5041720;28;20297;-80
2023/01/09 08:47:08;;;;;;;2.93;1.77;;;;;;;5.59;100.00;95278.63;5043562;28;20206;-79
2023/01/09 08:49:37;;;;;;;1.40;1.30;;;;;;;5.56;100.00;95287.91;5039026;28;20202;-80
2023/01/09 08:52:05;;;;;;;1.63;1.50;;;;;;;5.60;100.00;95282.94;5032728;28;20202;-80
2023/01/09 08:54:32;;;;;;;1.53;1.40;;;;;;;5.76;100.00;95311.78;5044130;28;20213;-79
2023/01/09 08:56:59;;;;;;;1.23;1.13;;;;;;;5.72;100.00;95310.56;5039420;28;20234;-80
2023/01/09 08:59:28;;;;;;;1.97;1.20;;;;;;;5.74;100.00;95294.28;5027854;28;20210;-80
2023/01/09 09:01:55;;;;;;;2.30;1.20;;;;;;;5.84;100.00;95303.44;5037322;28;20213;-80
2023/01/09 09:04:22;;;;;;;1.10;1.00;;;;;;;5.88;100.00;95293.09;5041742;28;20238;-79
2023/01/09 09:06:49;;;;;;;1.10;1.00;;;;;;;5.84;100.00;95287.34;5037768;28;20207;-79
2023/01/09 09:09:16;;;;;;;1.73;0.87;;;;;;;5.88;100.00;95293.91;5044085;28;20289;-79
2023/01/09 09:11:43;;;;;;;3.27;1.43;;;;;;;5.92;100.00;95287.06;5046350;28;20232;-80
2023/01/09 09:16:56;;;;;;;1.60;0.70;;;;;;;5.99;100.00;95292.34;5041598;28;20218;-79
2023/01/09 09:19:23;;;;;;;0.50;0.50;;;;;;;5.98;100.00;95285.34;5047036;28;20197;-79
2023/01/09 09:21:50;;;;;;;0.60;0.60;;;;;;;5.94;100.00;95268.91;5048469;28;20211;-79
2023/01/09 09:24:17;;;;;;;0.70;0.70;;;;;;;6.08;100.00;95275.72;5048283;28;20238;-79
2023/01/09 09:26:44;;;;;;;0.60;0.60;;;;;;;6.12;100.00;95280.63;5045096;28;20203;-79
2023/01/09 09:29:12;;;;;;;0.50;0.50;;;;;;;6.14;100.00;95275.81;5048773;28;20205;-79
2023/01/09 09:31:39;;;;;;;0.70;0.70;;;;;;;6.10;100.00;95272.00;5047896;28;20208;-79
2023/01/09 09:34:09;;;;;;;9.13;4.80;;;;;;;6.10;100.00;95280.03;5046880;28;20281;-79
2023/01/09 09:36:36;;;;;;;6.93;3.87;;;;;;;6.14;100.00;95283.88;5046549;28;20278;-79
2023/01/09 09:39:06;;;;;;;3.10;2.30;;;;;;;6.22;100.00;95286.22;5047702;28;20289;-79
2023/01/09 09:45:06;;;;;;;2.33;1.57;;;;;;;6.25;100.00;95291.13;5007828;28;20222;-79
2023/01/09 09:47:48;;;;;;;2.07;1.30;;;;;;;6.32;100.00;95291.84;5041241;28;20198;-79
2023/01/09 09:50:34;;;;;;;1.87;1.47;;;;;;;6.39;100.00;95288.00;5031389;28;20272;-80
2023/01/09 09:53:09;;;;;;;1.00;0.90;;;;;;;6.40;100.00;95272.75;5045193;28;20260;-79
2023/01/09 09:55:39;;;;;;;1.23;0.80;;;;;;;6.47;100.00;95284.19;5062569;28;20293;-81
2023/01/09 09:58:11;;;;;;;1.10;1.00;;;;;;;6.60;100.00;95292.03;5036037;28;20288;-80
2023/01/09 10:00:39;;;;;;;0.80;0.80;;;;;;;6.73;100.00;95282.94;5042549;28;20309;-81
2023/01/09 10:03:17;;;;;;;1.20;1.10;;;;;;;6.82;100.00;95276.19;5038131;28;20194;-80
2023/01/09 10:05:51;;;;;;;1.87;1.30;;;;;;;6.95;100.00;95277.81;5056111;28;20306;-80
2023/01/09 10:08:34;;;;;;;1.70;1.30;;;;;;;6.95;100.00;95259.88;5048321;28;20308;-81
2023/01/09 10:11:02;;;;;;;1.20;0.90;;;;;;;7.01;100.00;95268.84;5048020;28;20218;-80
2023/01/09 10:16:28;;;;;;;1.50;1.27;;;;;;;7.03;100.00;95291.72;5044873;28;20220;-81
2023/01/09 10:19:06;;;;;;;1.77;1.37;;;;;;;7.01;100.00;95285.75;5046491;28;20237;-80
2023/01/09 10:21:46;;;;;;;1.93;1.30;;;;;;;6.82;100.00;95274.31;5047746;28;20221;-81
2023/01/09 10:24:34;;;;;;;2.17;1.20;;;;;;;6.83;100.00;95265.22;5045613;28;20244;-80
2023/01/09 10:27:10;;;;;;;2.03;1.00;;;;;;;6.81;100.00;95261.13;5038167;28;20210;-80
2023/01/09 10:29:53;;;;;;;2.50;1.60;;;;;;;6.97;100.00;95267.69;5048191;28;20206;-80
2023/01/09 10:32:44;;;;;;;1.47;1.20;;;;;;;7.15;100.00;95267.53;5042284;28;21427;-81
2023/01/09 10:35:29;;;;;;;1.50;1.03;;;;;;;7.24;100.00;95266.13;5038778;28;20202;-81
2023/01/09 10:38:00;;;;;;;1.13;1.00;;;;;;;7.26;100.00;95253.28;5041554;28;20313;-81
2023/01/09 10:40:32;;;;;;;2.50;0.90;;;;;;;7.26;100.00;95249.78;5042718;28;20217;-81
2023/01/09 10:43:06;;;;;;;1.17;1.00;;;;;;;7.19;100.00;95249.91;5049877;28;20201;-81
2023/01/09 10:45:40;;;;;;;2.90;1.00;;;;;;;7.21;100.00;95242.44;5047983;28;20278;-81
2023/01/09 10:48:20;;;;;;;0.97;0.97;;;;;;;7.28;100.00;95253.88;5036286;28;20296;-81
2023/01/09 10:50:50;;;;;;;1.43;1.33;;;;;;;7.27;100.00;95238.81;5034212;28;20300;-81
2023/01/09 10:53:22;;;;;;;2.67;1.90;;;;;;;7.45;100.00;95244.03;5036607;28;20207;-81
2023/01/09 10:55:55;;;;;;;4.30;2.57;;;;;;;7.55;100.00;95230.00;5047244;28;20194;-81
2023/01/09 10:58:23;;;;;;;1.47;1.00;;;;;;;7.54;100.00;95214.94;5036473;28;20236;-81
2023/01/09 11:00:51;;;;;;;2.37;1.80;;;;;;;7.53;100.00;95227.53;5037176;28;20209;-80
2023/01/09 11:03:20;;;;;;;1.53;1.33;;;;;;;7.62;100.00;95227.16;5036911;28;20289;-80
2023/01/09 11:05:51;;;;;;;1.83;1.30;;;;;;;7.75;100.00;95218.81;5046341;28;20229;-80
2023/01/09 11:08:27;;;;;;;1.33;1.10;;;;;;;7.89;100.00;95229.03;5040574;28;20215;-81
2023/01/09 11:10:55;;;;;;;1.20;1.10;;;;;;;7.83;100.00;95218.41;5034841;28;20313;-81
2023/01/09 11:13:24;;;;;;;1.27;1.03;;;;;;;7.87;100.00;95215.03;5035010;28;20274;-81
2023/01/09 11:16:06;;;;;;;1.40;1.10;;;;;;;7.97;100.00;95220.59;5044110;28;20212;-81
2023/01/09 11:18:34;;;;;;;1.10;1.00;;;;;;;7.98;100.00;95211.47;5048077;28;20213;-81
2023/01/09 11:21:14;;;;;;;1.30;1.20;;;;;;;7.96;100.00;95213.59;5044953;28;20199;-81
2023/01/09 11:23:42;;;;;;;1.70;1.00;;;;;;;7.95;100.00;95221.88;5032606;28;20241;-80
2023/01/09 11:26:22;;;;;;;0.83;0.83;;;;;;;7.86;100.00;95204.50;5043559;28;20233;-81
2023/01/09 11:29:11;;;;;;;1.30;1.00;;;;;;;7.81;100.00;95204.44;5042605;28;20541;-81
2023/01/09 11:31:39;;;;;;;0.80;0.80;;;;;;;7.74;100.00;95203.75;5052116;28;20209;-81
2023/01/09 11:34:15;;;;;;;1.77;1.10;;;;;;;7.77;100.00;95201.41;5042157;28;20257;-81
2023/01/09 11:36:42;;;;;;;1.23;1.13;;;;;;;7.75;100.00;95194.63;5042253;28;20237;-81
2023/01/09 11:39:23;;;;;;;1.47;1.10;;;;;;;7.71;100.00;95183.56;5043150;28;20198;-80
2023/01/09 11:41:54;;;;;;;1.90;1.80;;;;;;;7.66;100.00;95188.00;5048910;28;20205;-80
2023/01/09 11:44:22;;;;;;;1.50;1.20;;;;;;;7.70;100.00;95197.22;5046534;28;20210;-81
2023/01/09 11:46:49;;;;;;;1.93;1.30;;;;;;;7.67;100.00;95200.38;5033248;28;20220;-80
2023/01/09 11:49:24;;;;;;;1.57;1.07;;;;;;;7.59;100.00;95191.66;5041179;28;20218;-81
2023/01/09 11:52:15;;;;;;;1.20;1.00;;;;;;;7.57;100.00;95199.13;5038537;28;20212;-80
2023/01/09 11:54:49;;;;;;;1.70;1.00;;;;;;;7.57;100.00;95209.88;5041433;28;20213;-80
2023/01/09 11:57:17;;;;;;;1.13;1.03;;;;;;;7.47;100.00;95190.91;5035917;28;20298;-80
2023/01/09 11:59:44;;;;;;;1.97;1.00;;;;;;;7.49;100.00;95201.38;5042631;28;20199;-81
2023/01/09 12:02:49;;;;;;;1.67;1.10;;;;;;;7.56;100.00;95192.16;5043183;28;20268;-80
2023/01/09 12:05:30;;;;;;;3.30;1.20;;;;;;;7.56;100.00;95213.66;5039334;28;20218;-80